QFA505 VRMM-VCBI
Flight info
| Callsign | QFA505 |
|---|---|
| Flight time | N/A |
| Altitude | 35000 |
| Route | HOKEY1B HOKEY M512 TELIG LALUM1A |
| Aircraft | A320/M-SDE3FGHIRWY/LB1 |
Departure
| Time | 2026-05-05 06:38 |
|---|---|
| Airport | Velana International Airport (VRMM) |
Arrival
| Time | N/A |
|---|---|
| Airport | Bandaranaike International Colombo Airport (VCBI) |
| Time | Latitude | Longitude | Altitude | Speed | Heading |
|---|---|---|---|---|---|
| 2026-05-05 06:34 | 4.20242 | 73.52896 | 10 ft | 24 kts | 359° |
| 2026-05-05 06:35 | 4.20409 | 73.52894 | 10 ft | 25 kts | 360° |
| 2026-05-05 06:35 | 4.20582 | 73.52893 | 11 ft | 25 kts | 359° |
| 2026-05-05 06:35 | 4.20702 | 73.52892 | 11 ft | 26 kts | 359° |
| 2026-05-05 06:35 | 4.20879 | 73.52910 | 13 ft | 26 kts | 18° |
| 2026-05-05 06:36 | 4.21045 | 73.52951 | 11 ft | 18 kts | 13° |
| 2026-05-05 06:36 | 4.21150 | 73.52980 | 10 ft | 16 kts | 15° |
| 2026-05-05 06:36 | 4.21237 | 73.53013 | 10 ft | 10 kts | 45° |
| 2026-05-05 06:36 | 4.21250 | 73.53080 | 10 ft | 9 kts | 101° |
| 2026-05-05 06:37 | 4.21204 | 73.53100 | 10 ft | 7 kts | 179° |
| 2026-05-05 06:37 | 4.21090 | 73.53099 | 11 ft | 42 kts | 180° |
| 2026-05-05 06:37 | 4.20547 | 73.53099 | 12 ft | 108 kts | 180° |
| 2026-05-05 06:37 | 4.19611 | 73.53099 | 9 ft | 158 kts | 180° |
| 2026-05-05 06:38 | 4.18456 | 73.53098 | 420 ft | 168 kts | 180° |
| 2026-05-05 06:38 | 4.17279 | 73.53104 | 1090 ft | 170 kts | 180° |
| 2026-05-05 06:38 | 4.16088 | 73.53113 | 1735 ft | 172 kts | 180° |
| 2026-05-05 06:38 | 4.14819 | 73.53117 | 2029 ft | 194 kts | 181° |
| 2026-05-05 06:39 | 4.13393 | 73.53111 | 2272 ft | 217 kts | 181° |
| 2026-05-05 06:39 | 4.11795 | 73.53104 | 2607 ft | 242 kts | 180° |
| 2026-05-05 06:39 | 4.10035 | 73.53098 | 3108 ft | 259 kts | 180° |
| 2026-05-05 06:39 | 4.08215 | 73.53096 | 3929 ft | 264 kts | 180° |
| 2026-05-05 06:40 | 4.06371 | 73.53100 | 4779 ft | 267 kts | 180° |
| 2026-05-05 06:40 | 4.04502 | 73.53114 | 5617 ft | 270 kts | 180° |
| 2026-05-05 06:40 | 4.02608 | 73.53129 | 6438 ft | 273 kts | 180° |
| 2026-05-05 06:40 | 4.00698 | 73.53193 | 7216 ft | 278 kts | 170° |
| 2026-05-05 06:41 | 3.98911 | 73.53935 | 7980 ft | 283 kts | 144° |
| 2026-05-05 06:41 | 3.97646 | 73.55433 | 8733 ft | 286 kts | 116° |
| 2026-05-05 06:41 | 3.97184 | 73.57363 | 9442 ft | 291 kts | 91° |
| 2026-05-05 06:41 | 3.97175 | 73.59387 | 10243 ft | 291 kts | 89° |
| 2026-05-05 06:42 | 3.97197 | 73.61477 | 10576 ft | 312 kts | 89° |
| 2026-05-05 06:42 | 3.97222 | 73.63728 | 10769 ft | 334 kts | 89° |
| 2026-05-05 06:42 | 3.97241 | 73.66100 | 11257 ft | 344 kts | 89° |
| 2026-05-05 06:42 | 3.97257 | 73.68512 | 11911 ft | 349 kts | 90° |
| 2026-05-05 06:43 | 3.97270 | 73.70953 | 12571 ft | 352 kts | 90° |
| 2026-05-05 06:43 | 3.97281 | 73.73420 | 13221 ft | 356 kts | 89° |
| 2026-05-05 06:43 | 3.97488 | 73.75899 | 13833 ft | 359 kts | 79° |
| 2026-05-05 06:43 | 3.98174 | 73.78309 | 14446 ft | 362 kts | 68° |
| 2026-05-05 06:44 | 3.99236 | 73.80610 | 15056 ft | 365 kts | 64° |
| 2026-05-05 06:44 | 4.00331 | 73.82920 | 15647 ft | 368 kts | 64° |
| 2026-05-05 06:44 | 4.01430 | 73.85252 | 16222 ft | 372 kts | 64° |
| 2026-05-05 06:44 | 4.02534 | 73.87605 | 16789 ft | 375 kts | 65° |
| 2026-05-05 06:45 | 4.03646 | 73.89975 | 17336 ft | 378 kts | 65° |
| 2026-05-05 06:45 | 4.04769 | 73.92368 | 17870 ft | 381 kts | 64° |
| 2026-05-05 06:45 | 4.05901 | 73.94776 | 18391 ft | 384 kts | 64° |
| 2026-05-05 06:45 | 4.07042 | 73.97199 | 18899 ft | 387 kts | 64° |
| 2026-05-05 06:46 | 4.08195 | 73.99646 | 19391 ft | 390 kts | 64° |
| 2026-05-05 06:46 | 4.09354 | 74.02108 | 19883 ft | 392 kts | 64° |
| 2026-05-05 06:46 | 4.10521 | 74.04590 | 20348 ft | 395 kts | 64° |
| 2026-05-05 06:46 | 4.11697 | 74.07086 | 20798 ft | 398 kts | 64° |
| 2026-05-05 06:47 | 4.12882 | 74.09601 | 21259 ft | 401 kts | 64° |
| 2026-05-05 06:47 | 4.14073 | 74.12133 | 21697 ft | 403 kts | 65° |
| 2026-05-05 06:47 | 4.15268 | 74.14681 | 22119 ft | 406 kts | 65° |
| 2026-05-05 06:47 | 4.16472 | 74.17251 | 22534 ft | 408 kts | 65° |
| 2026-05-05 06:48 | 4.17668 | 74.19799 | 22936 ft | 411 kts | 65° |
| 2026-05-05 06:48 | 4.18887 | 74.22394 | 23332 ft | 413 kts | 65° |
| 2026-05-05 06:48 | 4.20115 | 74.25007 | 23724 ft | 416 kts | 64° |
| 2026-05-05 06:48 | 4.21350 | 74.27631 | 24100 ft | 418 kts | 64° |
| 2026-05-05 06:49 | 4.22595 | 74.30273 | 24470 ft | 420 kts | 64° |
| 2026-05-05 06:49 | 4.23847 | 74.32928 | 24829 ft | 423 kts | 64° |
| 2026-05-05 06:49 | 4.25107 | 74.35595 | 25179 ft | 425 kts | 64° |
| 2026-05-05 06:49 | 4.26372 | 74.38282 | 25520 ft | 427 kts | 64° |
| 2026-05-05 06:50 | 4.27641 | 74.40978 | 25854 ft | 429 kts | 64° |
| 2026-05-05 06:50 | 4.28916 | 74.43690 | 26192 ft | 431 kts | 64° |
| 2026-05-05 06:50 | 4.30197 | 74.46416 | 26504 ft | 433 kts | 65° |
| 2026-05-05 06:50 | 4.31483 | 74.49157 | 26821 ft | 436 kts | 65° |
| 2026-05-05 06:51 | 4.32775 | 74.51907 | 27133 ft | 438 kts | 64° |
| 2026-05-05 06:51 | 4.34077 | 74.54671 | 27439 ft | 440 kts | 64° |
| 2026-05-05 06:51 | 4.35383 | 74.57450 | 27739 ft | 442 kts | 65° |
| 2026-05-05 06:51 | 4.36692 | 74.60245 | 28038 ft | 444 kts | 65° |
| 2026-05-05 06:52 | 4.38007 | 74.63051 | 28325 ft | 446 kts | 65° |
| 2026-05-05 06:52 | 4.39327 | 74.65866 | 28602 ft | 448 kts | 65° |
| 2026-05-05 06:52 | 4.40657 | 74.68696 | 28869 ft | 449 kts | 64° |
| 2026-05-05 06:52 | 4.41998 | 74.71542 | 29126 ft | 451 kts | 64° |
| 2026-05-05 06:53 | 4.43338 | 74.74391 | 29375 ft | 453 kts | 65° |
| 2026-05-05 06:53 | 4.44681 | 74.77249 | 29620 ft | 455 kts | 65° |
| 2026-05-05 06:53 | 4.46029 | 74.80118 | 29862 ft | 456 kts | 65° |
| 2026-05-05 06:53 | 4.47363 | 74.82962 | 30092 ft | 458 kts | 65° |
| 2026-05-05 06:54 | 4.48724 | 74.85859 | 30327 ft | 459 kts | 65° |
| 2026-05-05 06:54 | 4.50086 | 74.88764 | 30554 ft | 461 kts | 65° |
| 2026-05-05 06:54 | 4.51448 | 74.91668 | 30860 ft | 460 kts | 65° |
| 2026-05-05 06:54 | 4.52808 | 74.94565 | 31180 ft | 459 kts | 65° |
| 2026-05-05 06:55 | 4.54170 | 74.97463 | 31488 ft | 459 kts | 64° |
| 2026-05-05 06:55 | 4.55530 | 75.00350 | 31793 ft | 458 kts | 64° |
| 2026-05-05 06:55 | 4.56886 | 75.03236 | 32089 ft | 457 kts | 65° |
| 2026-05-05 06:55 | 4.58238 | 75.06119 | 32383 ft | 457 kts | 65° |
| 2026-05-05 06:56 | 4.59587 | 75.09001 | 32670 ft | 456 kts | 65° |
| 2026-05-05 06:56 | 4.60933 | 75.11882 | 32955 ft | 456 kts | 65° |
| 2026-05-05 06:56 | 4.62276 | 75.14753 | 33232 ft | 455 kts | 65° |
| 2026-05-05 06:56 | 4.63618 | 75.17626 | 33514 ft | 455 kts | 65° |
| 2026-05-05 06:57 | 4.64960 | 75.20496 | 33789 ft | 454 kts | 65° |
| 2026-05-05 06:57 | 4.66301 | 75.23358 | 34061 ft | 454 kts | 65° |
| 2026-05-05 06:57 | 4.67646 | 75.26216 | 34334 ft | 453 kts | 64° |
| 2026-05-05 06:57 | 4.68991 | 75.29071 | 34599 ft | 452 kts | 64° |
| 2026-05-05 06:58 | 4.70329 | 75.31924 | 34855 ft | 452 kts | 65° |
| 2026-05-05 06:58 | 4.71665 | 75.34778 | 34983 ft | 451 kts | 65° |
| 2026-05-05 06:58 | 4.72992 | 75.37616 | 35007 ft | 449 kts | 65° |
| 2026-05-05 06:59 | 4.75639 | 75.43283 | 35009 ft | 449 kts | 65° |
| 2026-05-05 06:59 | 4.78343 | 75.48930 | 35010 ft | 449 kts | 63° |
| 2026-05-05 07:00 | 4.81211 | 75.54491 | 35015 ft | 449 kts | 62° |
| 2026-05-05 07:00 | 4.84101 | 75.60038 | 35015 ft | 449 kts | 62° |
| 2026-05-05 07:01 | 4.86961 | 75.65603 | 35012 ft | 449 kts | 63° |
| 2026-05-05 07:01 | 4.89808 | 75.71181 | 35012 ft | 449 kts | 63° |
| 2026-05-05 07:02 | 4.92644 | 75.76756 | 35016 ft | 449 kts | 63° |
| 2026-05-05 07:02 | 4.95470 | 75.82302 | 35013 ft | 449 kts | 63° |
| 2026-05-05 07:03 | 4.98328 | 75.87910 | 35025 ft | 449 kts | 63° |
| 2026-05-05 07:03 | 5.01158 | 75.93448 | 35019 ft | 449 kts | 63° |
| 2026-05-05 07:04 | 5.04004 | 75.99028 | 35022 ft | 449 kts | 63° |
| 2026-05-05 07:04 | 5.06844 | 76.04605 | 35024 ft | 449 kts | 63° |
| 2026-05-05 07:05 | 5.09686 | 76.10182 | 35023 ft | 449 kts | 63° |
| 2026-05-05 07:05 | 5.11942 | 76.16008 | 35022 ft | 449 kts | 73° |
| 2026-05-05 07:06 | 5.13762 | 76.21995 | 35020 ft | 449 kts | 73° |
| 2026-05-05 07:06 | 5.15601 | 76.27981 | 35018 ft | 449 kts | 72° |
| 2026-05-05 07:07 | 5.17443 | 76.33961 | 35014 ft | 449 kts | 73° |
| 2026-05-05 07:07 | 5.19285 | 76.39943 | 35015 ft | 449 kts | 72° |
| 2026-05-05 07:08 | 5.21127 | 76.45933 | 35018 ft | 449 kts | 73° |
| 2026-05-05 07:08 | 5.22966 | 76.51917 | 35021 ft | 449 kts | 73° |
| 2026-05-05 07:09 | 5.24800 | 76.57902 | 35021 ft | 449 kts | 73° |
| 2026-05-05 07:09 | 5.26628 | 76.63892 | 35016 ft | 449 kts | 73° |
| 2026-05-05 07:10 | 5.28462 | 76.69881 | 35016 ft | 449 kts | 73° |
| 2026-05-05 07:10 | 5.30301 | 76.75866 | 35018 ft | 449 kts | 73° |
| 2026-05-05 07:11 | 5.32132 | 76.81855 | 35015 ft | 449 kts | 73° |
| 2026-05-05 07:11 | 5.33959 | 76.87844 | 35019 ft | 449 kts | 73° |
| 2026-05-05 07:12 | 5.35794 | 76.93832 | 35019 ft | 449 kts | 73° |
| 2026-05-05 07:12 | 5.37639 | 76.99818 | 35022 ft | 449 kts | 73° |
| 2026-05-05 07:13 | 5.39467 | 77.05808 | 35018 ft | 449 kts | 73° |
| 2026-05-05 07:13 | 5.41283 | 77.11760 | 35024 ft | 449 kts | 73° |
| 2026-05-05 07:14 | 5.43125 | 77.17786 | 35024 ft | 449 kts | 73° |
| 2026-05-05 07:14 | 5.44946 | 77.23737 | 35018 ft | 449 kts | 73° |
| 2026-05-05 07:15 | 5.46781 | 77.29722 | 35020 ft | 449 kts | 73° |
| 2026-05-05 07:15 | 5.48606 | 77.35714 | 35016 ft | 449 kts | 73° |
| 2026-05-05 07:16 | 5.50427 | 77.41704 | 35016 ft | 449 kts | 73° |
| 2026-05-05 07:16 | 5.52250 | 77.47696 | 35013 ft | 449 kts | 73° |
| 2026-05-05 07:17 | 5.54067 | 77.53685 | 35015 ft | 448 kts | 73° |
| 2026-05-05 07:17 | 5.55895 | 77.59668 | 35010 ft | 448 kts | 73° |
| 2026-05-05 07:18 | 5.57722 | 77.65660 | 35005 ft | 449 kts | 73° |
| 2026-05-05 07:18 | 5.59546 | 77.71651 | 35007 ft | 449 kts | 73° |
| 2026-05-05 07:19 | 5.61374 | 77.77642 | 35013 ft | 449 kts | 73° |
| 2026-05-05 07:19 | 5.63197 | 77.83634 | 35017 ft | 450 kts | 73° |
| 2026-05-05 07:20 | 5.65024 | 77.89632 | 35018 ft | 449 kts | 73° |
| 2026-05-05 07:20 | 5.66532 | 77.94616 | 35015 ft | 449 kts | 73° |
| 2026-05-05 07:21 | 5.69346 | 78.01330 | 35006 ft | 448 kts | 56° |
| 2026-05-05 07:21 | 5.72505 | 78.05451 | 35008 ft | 448 kts | 51° |
| 2026-05-05 07:22 | 5.76403 | 78.10332 | 34999 ft | 448 kts | 51° |
| 2026-05-05 07:22 | 5.80284 | 78.15226 | 35004 ft | 448 kts | 51° |
| 2026-05-05 07:23 | 5.84170 | 78.20121 | 35007 ft | 448 kts | 51° |
| 2026-05-05 07:23 | 5.88065 | 78.25013 | 35008 ft | 448 kts | 51° |
| 2026-05-05 07:24 | 5.91950 | 78.29919 | 35007 ft | 448 kts | 51° |
| 2026-05-05 07:24 | 5.95832 | 78.34815 | 35015 ft | 448 kts | 51° |
| 2026-05-05 07:25 | 5.99724 | 78.39702 | 35010 ft | 448 kts | 51° |
| 2026-05-05 07:25 | 6.03617 | 78.44599 | 35013 ft | 449 kts | 51° |
| 2026-05-05 07:26 | 6.07481 | 78.49471 | 35017 ft | 448 kts | 51° |
| 2026-05-05 07:26 | 6.11370 | 78.54376 | 35017 ft | 448 kts | 51° |
| 2026-05-05 07:27 | 6.15661 | 78.58902 | 35018 ft | 448 kts | 38° |
| 2026-05-05 07:27 | 6.18125 | 78.60819 | 34894 ft | 448 kts | 37° |
| 2026-05-05 07:27 | 6.20590 | 78.62735 | 34634 ft | 447 kts | 37° |
| 2026-05-05 07:27 | 6.23065 | 78.64660 | 33786 ft | 455 kts | 37° |
| 2026-05-05 07:28 | 6.25583 | 78.66619 | 32953 ft | 458 kts | 37° |
| 2026-05-05 07:28 | 6.28085 | 78.68570 | 32440 ft | 452 kts | 38° |
| 2026-05-05 07:28 | 6.30562 | 78.70501 | 31841 ft | 449 kts | 37° |
| 2026-05-05 07:28 | 6.33023 | 78.72419 | 31259 ft | 446 kts | 38° |
| 2026-05-05 07:29 | 6.35461 | 78.74324 | 30685 ft | 442 kts | 38° |
| 2026-05-05 07:29 | 6.37878 | 78.76217 | 30110 ft | 439 kts | 38° |
| 2026-05-05 07:29 | 6.40267 | 78.78106 | 29543 ft | 435 kts | 40° |
| 2026-05-05 07:29 | 6.42410 | 78.80232 | 28994 ft | 432 kts | 50° |
| 2026-05-05 07:30 | 6.44273 | 78.82539 | 28457 ft | 428 kts | 51° |
| 2026-05-05 07:30 | 6.47974 | 78.87168 | 27394 ft | 421 kts | 51° |
| 2026-05-05 07:30 | 6.49799 | 78.89447 | 26882 ft | 417 kts | 51° |
| 2026-05-05 07:31 | 6.51569 | 78.91652 | 26387 ft | 413 kts | 51° |
| 2026-05-05 07:31 | 6.53363 | 78.93882 | 24844 ft | 404 kts | 51° |
| 2026-05-05 07:31 | 6.55099 | 78.96036 | 24762 ft | 390 kts | 51° |
| 2026-05-05 07:31 | 6.56800 | 78.98147 | 24684 ft | 391 kts | 52° |
| 2026-05-05 07:32 | 6.58508 | 79.00271 | 24416 ft | 391 kts | 52° |
| 2026-05-05 07:32 | 6.60210 | 79.02398 | 23981 ft | 389 kts | 52° |
| 2026-05-05 07:32 | 6.61901 | 79.04514 | 23532 ft | 388 kts | 52° |
| 2026-05-05 07:32 | 6.63594 | 79.06634 | 23046 ft | 387 kts | 52° |
| 2026-05-05 07:33 | 6.65259 | 79.08743 | 22593 ft | 384 kts | 53° |
| 2026-05-05 07:33 | 6.66904 | 79.10847 | 22157 ft | 381 kts | 53° |
| 2026-05-05 07:33 | 6.68540 | 79.12944 | 21718 ft | 379 kts | 53° |
| 2026-05-05 07:33 | 6.70164 | 79.15025 | 21277 ft | 378 kts | 53° |
| 2026-05-05 07:34 | 6.71787 | 79.17099 | 20827 ft | 376 kts | 53° |
| 2026-05-05 07:34 | 6.73405 | 79.19161 | 20382 ft | 376 kts | 52° |
| 2026-05-05 07:34 | 6.75024 | 79.21220 | 19931 ft | 375 kts | 53° |
| 2026-05-05 07:34 | 6.76740 | 79.23188 | 19544 ft | 373 kts | 44° |
| 2026-05-05 07:35 | 6.78648 | 79.24952 | 19094 ft | 373 kts | 44° |
| 2026-05-05 07:35 | 6.80564 | 79.26717 | 18622 ft | 374 kts | 44° |
| 2026-05-05 07:35 | 6.82484 | 79.28484 | 18148 ft | 375 kts | 44° |
| 2026-05-05 07:35 | 6.84410 | 79.30248 | 17626 ft | 375 kts | 43° |
| 2026-05-05 07:36 | 6.86338 | 79.32012 | 17146 ft | 373 kts | 43° |
| 2026-05-05 07:36 | 6.88254 | 79.33771 | 16687 ft | 372 kts | 44° |
| 2026-05-05 07:36 | 6.90161 | 79.35527 | 16215 ft | 371 kts | 44° |
| 2026-05-05 07:36 | 6.92060 | 79.37276 | 15762 ft | 369 kts | 44° |
| 2026-05-05 07:37 | 6.93952 | 79.39020 | 15302 ft | 368 kts | 44° |
| 2026-05-05 07:37 | 6.95842 | 79.40759 | 14847 ft | 367 kts | 44° |
| 2026-05-05 07:37 | 6.97723 | 79.42489 | 14390 ft | 366 kts | 44° |
| 2026-05-05 07:37 | 6.99603 | 79.44222 | 13928 ft | 367 kts | 44° |
| 2026-05-05 07:38 | 7.01491 | 79.45964 | 13435 ft | 370 kts | 44° |
| 2026-05-05 07:38 | 7.03365 | 79.47690 | 12989 ft | 369 kts | 43° |
| 2026-05-05 07:38 | 7.05274 | 79.49445 | 12498 ft | 366 kts | 43° |
| 2026-05-05 07:38 | 7.07143 | 79.51161 | 12046 ft | 363 kts | 44° |
| 2026-05-05 07:39 | 7.08999 | 79.52868 | 11618 ft | 359 kts | 44° |
| 2026-05-05 07:39 | 7.10804 | 79.54529 | 11116 ft | 354 kts | 43° |
| 2026-05-05 07:39 | 7.12611 | 79.56194 | 10575 ft | 341 kts | 43° |
| 2026-05-05 07:39 | 7.14345 | 79.57794 | 10206 ft | 335 kts | 44° |
| 2026-05-05 07:40 | 7.16036 | 79.59354 | 10082 ft | 323 kts | 44° |
| 2026-05-05 07:40 | 7.17664 | 79.60853 | 9965 ft | 312 kts | 43° |
| 2026-05-05 07:40 | 7.19233 | 79.62296 | 9750 ft | 300 kts | 43° |
| 2026-05-05 07:40 | 7.20756 | 79.63696 | 9312 ft | 293 kts | 43° |
| 2026-05-05 07:41 | 7.22263 | 79.65083 | 8915 ft | 293 kts | 43° |
| 2026-05-05 07:41 | 7.23741 | 79.66448 | 8524 ft | 292 kts | 43° |
| 2026-05-05 07:41 | 7.25237 | 79.67831 | 8141 ft | 292 kts | 42° |
| 2026-05-05 07:41 | 7.26751 | 79.69228 | 7745 ft | 291 kts | 42° |
| 2026-05-05 07:42 | 7.28244 | 79.70602 | 7356 ft | 290 kts | 41° |
| 2026-05-05 07:42 | 7.29733 | 79.71971 | 6971 ft | 289 kts | 42° |
| 2026-05-05 07:42 | 7.31212 | 79.73333 | 6616 ft | 287 kts | 41° |
| 2026-05-05 07:42 | 7.32660 | 79.74669 | 6379 ft | 277 kts | 40° |
| 2026-05-05 07:43 | 7.34050 | 79.75953 | 5856 ft | 272 kts | 41° |
| 2026-05-05 07:43 | 7.35440 | 79.77238 | 5464 ft | 270 kts | 41° |
| 2026-05-05 07:43 | 7.36823 | 79.78514 | 5113 ft | 272 kts | 41° |
| 2026-05-05 07:43 | 7.38208 | 79.79792 | 4748 ft | 269 kts | 41° |
| 2026-05-05 07:44 | 7.39553 | 79.81106 | 4375 ft | 269 kts | 51° |
| 2026-05-05 07:44 | 7.40333 | 79.82813 | 4016 ft | 272 kts | 81° |
| 2026-05-05 07:44 | 7.40208 | 79.84679 | 3732 ft | 269 kts | 110° |